createdAt,value
2022-12-08T00:01:27.463Z,99778.25
2022-12-08T00:03:55.566Z,99795.13
2022-12-08T00:06:54.312Z,99802.06
2022-12-08T00:09:32.023Z,99801.84
2022-12-08T00:12:08.643Z,99806.09
2022-12-08T00:14:44.453Z,99792.94
2022-12-08T00:17:13.537Z,99798.59
2022-12-08T00:19:41.819Z,99794.13
2022-12-08T00:22:10.744Z,99799.66
2022-12-08T00:24:40.578Z,99800.50
2022-12-08T00:27:09.283Z,99794.47
2022-12-08T00:29:37.090Z,99798.59
2022-12-08T00:32:05.088Z,99803.06
2022-12-08T00:34:33.103Z,99804.78
2022-12-08T00:37:00.518Z,99787.56
2022-12-08T00:39:27.635Z,99799.47
2022-12-08T00:42:12.879Z,99799.56
2022-12-08T00:44:44.240Z,99809.03
2022-12-08T00:47:11.955Z,99805.31
2022-12-08T00:49:39.033Z,99788.88
2022-12-08T00:52:06.506Z,99785.44
2022-12-08T00:54:33.776Z,99796.09
2022-12-08T00:57:00.823Z,99805.53
2022-12-08T00:59:27.802Z,99781.44
2022-12-08T01:01:54.834Z,99804.47
2022-12-08T01:04:22.012Z,99801.81
2022-12-08T01:06:49.833Z,99801.06
2022-12-08T01:09:18.150Z,99803.00
2022-12-08T01:11:45.655Z,99788.25
2022-12-08T01:14:13.678Z,99791.53
2022-12-08T01:16:44.070Z,99780.06
2022-12-08T01:19:15.938Z,99755.66
2022-12-08T01:21:43.942Z,99789.84
2022-12-08T01:24:12.904Z,99773.47
2022-12-08T01:26:40.476Z,99789.50
2022-12-08T01:29:07.957Z,99790.34
2022-12-08T01:31:35.178Z,99789.31
2022-12-08T01:34:02.478Z,99773.47
2022-12-08T01:36:31.804Z,99784.31
2022-12-08T01:39:00.893Z,99775.94
2022-12-08T01:41:33.422Z,99768.72
2022-12-08T01:44:04.254Z,99747.38
2022-12-08T01:46:33.589Z,99771.25
2022-12-08T01:49:09.269Z,99750.16
2022-12-08T01:51:42.788Z,99763.13
2022-12-08T01:54:11.943Z,99737.41
2022-12-08T01:57:01.162Z,99742.06
2022-12-08T01:59:30.826Z,99753.13
2022-12-08T02:01:58.454Z,99750.34
2022-12-08T02:04:25.651Z,99746.13
2022-12-08T02:06:53.828Z,99705.78
2022-12-08T02:09:22.076Z,99728.16
2022-12-08T02:11:50.620Z,99729.03
2022-12-08T02:14:17.773Z,99710.47
2022-12-08T02:17:14.793Z,99722.66
2022-12-08T02:20:19.475Z,99727.88
2022-12-08T02:22:57.297Z,99720.63
2022-12-08T02:25:33.420Z,99714.38
2022-12-08T02:28:38.102Z,99697.50
2022-12-08T02:31:56.149Z,99722.09
2022-12-08T02:34:47.662Z,99730.06
2022-12-08T02:37:26.847Z,99724.75
2022-12-08T02:40:22.343Z,99724.75
2022-12-08T02:42:57.893Z,99723.19
2022-12-08T02:45:39.221Z,99725.72
2022-12-08T02:48:09.419Z,99711.09
2022-12-08T02:50:36.513Z,99730.94
2022-12-08T02:55:50.202Z,99707.59
2022-12-08T02:58:29.134Z,99722.53
2022-12-08T03:01:17.884Z,99697.50
2022-12-08T03:03:47.923Z,99703.75
2022-12-08T03:06:33.565Z,99694.84
2022-12-08T03:09:21.843Z,99699.28
2022-12-08T03:12:20.304Z,99680.59
2022-12-08T03:14:53.923Z,99646.44
2022-12-08T03:17:22.309Z,99676.69
2022-12-08T03:19:50.319Z,99682.28
2022-12-08T03:22:22.351Z,99682.28
2022-12-08T03:24:50.160Z,99684.94
2022-12-08T03:27:21.831Z,99664.38
2022-12-08T03:29:51.051Z,99683.56
2022-12-08T03:32:29.436Z,99680.19
2022-12-08T03:34:59.325Z,99676.06
2022-12-08T03:37:28.295Z,99664.38
2022-12-08T03:39:55.739Z,99688.03
2022-12-08T03:42:22.898Z,99681.66
2022-12-08T03:44:49.916Z,99679.34
2022-12-08T03:47:16.980Z,99685.47
2022-12-08T03:49:43.934Z,99674.97
2022-12-08T03:52:10.901Z,99668.94
2022-12-08T03:54:37.961Z,99665.09
2022-12-08T03:57:05.003Z,99664.97
2022-12-08T03:59:32.041Z,99677.22
2022-12-08T04:01:59.032Z,99648.88
2022-12-08T04:04:26.110Z,99656.63
2022-12-08T04:06:53.058Z,99672.53
2022-12-08T04:09:20.147Z,99670.16
2022-12-08T04:11:47.106Z,99665.69
2022-12-08T04:14:14.185Z,99671.00
2022-12-08T04:16:41.359Z,99676.63
2022-12-08T04:19:08.491Z,99673.13
2022-12-08T04:21:37.142Z,99668.78
2022-12-08T04:24:04.297Z,99667.09
2022-12-08T04:26:31.368Z,99673.13
2022-12-08T04:28:58.321Z,99666.13
2022-12-08T04:31:25.450Z,99645.97
2022-12-08T04:33:52.429Z,99654.56
2022-12-08T04:36:19.451Z,99659.53
2022-12-08T04:38:46.386Z,99663.16
2022-12-08T04:41:13.467Z,99658.59
2022-12-08T04:43:41.493Z,99651.34
2022-12-08T04:46:09.463Z,99654.41
2022-12-08T04:48:41.310Z,99639.34
2022-12-08T04:51:15.916Z,99627.00
2022-12-08T04:53:46.743Z,99627.63
2022-12-08T04:56:15.949Z,99626.91
2022-12-08T04:58:43.224Z,99602.84
2022-12-08T05:01:10.647Z,99617.72
2022-12-08T05:03:37.983Z,99620.00
2022-12-08T05:06:05.508Z,99620.97
2022-12-08T05:08:32.898Z,99587.22
2022-12-08T05:11:05.667Z,99599.09
2022-12-08T05:13:33.147Z,99597.16
2022-12-08T05:16:13.137Z,99616.69
2022-12-08T05:18:42.062Z,99627.31
2022-12-08T05:21:09.892Z,99619.34
2022-12-08T05:23:37.014Z,99612.94
2022-12-08T05:26:04.047Z,99612.22
2022-12-08T05:28:46.352Z,99612.72
2022-12-08T05:31:15.404Z,99603.78
2022-12-08T05:33:43.164Z,99604.13
2022-12-08T05:36:12.926Z,99596.78
2022-12-08T05:38:40.759Z,99606.56
2022-12-08T05:41:09.069Z,99606.22
2022-12-08T05:43:36.334Z,99608.00
2022-12-08T05:46:03.688Z,99629.72
2022-12-08T05:48:30.852Z,99613.06
2022-12-08T05:50:58.113Z,99613.56
2022-12-08T05:53:25.261Z,99613.47
2022-12-08T05:55:52.255Z,99616.00
2022-12-08T05:58:22.564Z,99612.38
2022-12-08T06:00:50.843Z,99607.31
2022-12-08T06:03:19.942Z,99610.81
2022-12-08T06:05:47.983Z,99621.31
2022-12-08T06:08:15.445Z,99617.81
2022-12-08T06:10:44.079Z,99628.50
2022-12-08T06:13:11.437Z,99626.34
2022-12-08T06:15:39.265Z,99628.25
2022-12-08T06:18:07.126Z,99623.06
2022-12-08T06:20:34.880Z,99590.16
2022-12-08T06:23:02.361Z,99606.38
2022-12-08T06:25:29.401Z,99598.31
2022-12-08T06:27:56.399Z,99585.47
2022-12-08T06:30:23.542Z,99605.94
2022-12-08T06:32:50.601Z,99605.09
2022-12-08T06:35:17.661Z,99613.06
2022-12-08T06:37:44.719Z,99616.44
2022-12-08T06:40:12.399Z,99608.38
2022-12-08T06:42:45.472Z,99599.50
2022-12-08T06:45:14.915Z,99613.56
2022-12-08T06:47:42.219Z,99613.31
2022-12-08T06:50:11.434Z,99610.94
2022-12-08T06:52:47.268Z,99609.88
2022-12-08T06:55:42.532Z,99602.75
2022-12-08T06:58:07.426Z,99619.53
2022-12-08T07:00:34.441Z,99609.97
2022-12-08T07:03:01.514Z,99580.91
2022-12-08T07:05:28.535Z,99639.13
2022-12-08T07:07:56.044Z,99632.59
2022-12-08T07:10:23.020Z,99635.84
2022-12-08T07:12:50.133Z,99632.03
2022-12-08T07:15:17.167Z,99598.75
2022-12-08T07:17:44.376Z,99606.28
2022-12-08T07:20:11.686Z,99621.94
2022-12-08T07:22:38.626Z,99592.28
2022-12-08T07:25:06.284Z,99599.09
2022-12-08T07:27:33.307Z,99601.38
2022-12-08T07:30:00.252Z,99586.91
2022-12-08T07:32:27.386Z,99598.88
2022-12-08T07:34:54.350Z,99603.00
2022-12-08T07:37:21.289Z,99605.28
2022-12-08T07:39:48.513Z,99589.06
2022-12-08T07:42:15.460Z,99607.72
2022-12-08T07:44:46.759Z,99606.38
2022-12-08T07:47:14.002Z,99595.34
2022-12-08T07:49:41.049Z,99600.00
2022-12-08T07:52:08.028Z,99606.63
2022-12-08T07:54:35.030Z,99599.28
2022-12-08T07:57:03.882Z,99572.16
2022-12-08T07:59:30.838Z,99580.84
2022-12-08T08:02:21.292Z,99583.88
2022-12-08T08:04:45.145Z,99582.31
2022-12-08T08:07:12.617Z,99572.13
2022-12-08T08:09:39.822Z,99600.06
2022-12-08T08:12:30.360Z,99596.94
2022-12-08T08:14:53.884Z,99578.25
2022-12-08T08:17:21.106Z,99574.25
2022-12-08T08:19:48.275Z,99563.97
2022-12-08T08:22:15.212Z,99574.94
2022-12-08T08:24:45.083Z,99575.25
2022-12-08T08:27:12.721Z,99565.47
2022-12-08T08:29:39.750Z,99583.84
2022-12-08T08:32:06.745Z,99578.97
2022-12-08T08:34:33.790Z,99570.06
2022-12-08T08:37:00.909Z,99563.06
2022-12-08T08:39:28.038Z,99570.03
2022-12-08T08:41:54.990Z,99562.25
2022-12-08T08:44:22.080Z,99545.78
2022-12-08T08:46:49.211Z,99551.66
2022-12-08T08:49:16.287Z,99545.72
2022-12-08T08:51:44.016Z,99563.09
2022-12-08T08:54:11.607Z,99546.28
2022-12-08T08:56:38.596Z,99554.41
2022-12-08T08:59:05.701Z,99550.22
2022-12-08T09:01:32.924Z,99524.94
2022-12-08T09:04:00.096Z,99549.47
2022-12-08T09:06:28.562Z,99550.16
2022-12-08T09:08:56.045Z,99536.66
2022-12-08T09:11:26.052Z,99536.13
2022-12-08T09:13:54.904Z,99524.16
2022-12-08T09:16:22.928Z,99526.41
2022-12-08T09:18:50.812Z,99498.41
2022-12-08T09:21:22.925Z,99513.47
2022-12-08T09:23:58.096Z,99499.41
2022-12-08T09:26:26.739Z,99515.28
2022-12-08T09:28:55.331Z,99508.84
2022-12-08T09:31:23.977Z,99504.59
2022-12-08T09:33:54.352Z,99492.66
2022-12-08T09:36:21.615Z,99487.59
2022-12-08T09:38:49.409Z,99476.72
2022-12-08T09:41:40.320Z,99467.13
2022-12-08T09:44:36.677Z,99456.31
2022-12-08T09:47:13.543Z,99467.28
2022-12-08T09:49:47.345Z,99461.03
2022-12-08T09:52:25.316Z,99446.81
2022-12-08T09:54:52.669Z,99467.00
2022-12-08T09:57:24.656Z,99466.06
2022-12-08T10:00:06.264Z,99447.81
2022-12-08T10:02:33.792Z,99471.19
2022-12-08T10:05:00.968Z,99471.84
2022-12-08T10:07:32.473Z,99474.53
2022-12-08T10:10:16.039Z,99470.53
2022-12-08T10:13:19.918Z,99480.84
2022-12-08T10:16:10.489Z,99466.78
2022-12-08T10:18:40.779Z,99458.28
2022-12-08T10:21:20.744Z,99466.63
2022-12-08T10:23:55.738Z,99464.50
2022-12-08T10:26:23.064Z,99461.97
2022-12-08T10:28:50.730Z,99465.84
2022-12-08T10:31:20.627Z,99468.38
2022-12-08T10:33:51.479Z,99463.25
2022-12-08T10:36:18.580Z,99445.66
2022-12-08T10:38:45.649Z,99440.22
2022-12-08T10:41:12.734Z,99433.25
2022-12-08T10:44:03.080Z,99437.22
2022-12-08T10:46:30.471Z,99433.06
2022-12-08T10:49:06.460Z,99436.22
2022-12-08T10:51:33.352Z,99434.81
2022-12-08T10:54:01.046Z,99433.13
2022-12-08T10:56:30.596Z,99423.09
2022-12-08T10:59:17.589Z,99431.31
2022-12-08T11:01:53.297Z,99428.38
2022-12-08T11:04:24.293Z,99428.53
2022-12-08T11:06:52.819Z,99409.91
2022-12-08T11:09:19.812Z,99429.16
2022-12-08T11:11:53.994Z,99427.22
2022-12-08T11:14:26.820Z,99431.91
2022-12-08T11:17:05.825Z,99440.66
2022-12-08T11:19:37.984Z,99429.16
2022-12-08T11:22:35.788Z,99424.81
2022-12-08T11:25:08.641Z,99431.03
2022-12-08T11:27:38.023Z,99413.06
2022-12-08T11:30:17.444Z,99419.41
2022-12-08T11:32:49.998Z,99416.03
2022-12-08T11:35:30.209Z,99412.69
2022-12-08T11:38:19.777Z,99405.94
2022-12-08T11:40:50.552Z,99378.22
2022-12-08T11:43:35.759Z,99405.66
2022-12-08T11:46:09.897Z,99401.84
2022-12-08T11:49:05.582Z,99409.28
2022-12-08T11:51:59.177Z,99405.13
2022-12-08T11:55:03.307Z,99404.41
2022-12-08T11:57:30.729Z,99395.72
2022-12-08T11:59:59.019Z,99378.81
2022-12-08T12:02:30.137Z,99391.22
2022-12-08T12:05:08.257Z,99384.75
2022-12-08T12:07:58.498Z,99366.91
2022-12-08T12:10:35.909Z,99369.69
2022-12-08T12:13:25.825Z,99363.22
2022-12-08T12:16:23.889Z,99354.34
2022-12-08T12:18:56.240Z,99348.84
2022-12-08T12:21:32.652Z,99350.94
2022-12-08T12:24:02.051Z,99347.72
2022-12-08T12:26:31.372Z,99344.75
2022-12-08T12:29:20.297Z,99313.44
2022-12-08T12:32:09.092Z,99337.28
2022-12-08T12:34:44.870Z,99334.31
2022-12-08T12:37:15.539Z,99329.25
2022-12-08T12:39:48.891Z,99321.81
2022-12-08T12:42:51.228Z,99345.31
2022-12-08T12:45:18.164Z,99338.13
2022-12-08T12:47:57.457Z,99339.41
2022-12-08T12:50:33.843Z,99341.53
2022-12-08T12:53:09.151Z,99335.34
2022-12-08T12:55:54.617Z,99322.13
2022-12-08T12:58:27.662Z,99324.25
2022-12-08T13:01:13.104Z,99319.44
2022-12-08T13:03:50.123Z,99314.41
2022-12-08T13:06:33.742Z,99316.22
2022-12-08T13:09:00.979Z,99298.09
2022-12-08T13:11:28.084Z,99308.06
2022-12-08T13:14:04.516Z,99309.06
2022-12-08T13:16:39.090Z,99310.59
2022-12-08T13:19:14.371Z,99304.25
2022-12-08T13:21:41.833Z,99303.94
2022-12-08T13:24:14.885Z,99298.47
2022-12-08T13:27:04.195Z,99297.34
2022-12-08T13:29:40.484Z,99275.72
2022-12-08T13:32:07.428Z,99300.88
2022-12-08T13:34:49.101Z,99296.25
2022-12-08T13:37:25.577Z,99289.50
2022-12-08T13:40:19.184Z,99294.69
2022-12-08T13:43:15.359Z,99289.66
2022-12-08T13:46:52.944Z,99279.97
2022-12-08T13:55:59.030Z,99315.31
2022-12-08T13:57:34.574Z,99325.28
2022-12-08T14:00:07.634Z,99329.25
2022-12-08T14:02:47.743Z,99344.31
2022-12-08T14:05:34.605Z,99336.84
2022-12-08T14:08:57.771Z,99343.19
2022-12-08T14:11:33.849Z,99340.94
2022-12-08T14:14:03.652Z,99324.50
2022-12-08T14:16:41.277Z,99330.25
2022-12-08T14:19:23.688Z,99323.94
2022-12-08T14:21:56.602Z,99320.41
2022-12-08T14:24:25.129Z,99313.50
2022-12-08T14:26:55.165Z,99321.81
2022-12-08T14:29:52.801Z,99320.00
2022-12-08T14:32:43.021Z,99294.59
2022-12-08T14:35:10.122Z,99305.53
2022-12-08T14:37:48.574Z,99316.50
2022-12-08T14:40:23.109Z,99326.47
2022-12-08T14:43:16.823Z,99326.88
2022-12-08T14:45:43.764Z,99314.13
2022-12-08T14:48:33.893Z,99326.06
2022-12-08T14:51:03.994Z,99305.81
2022-12-08T14:53:40.025Z,99326.34
2022-12-08T14:56:12.368Z,99333.38
2022-12-08T14:58:39.512Z,99331.09
2022-12-08T15:01:08.578Z,99324.50
2022-12-08T15:03:36.713Z,99328.56
2022-12-08T15:06:06.914Z,99332.53
2022-12-08T15:08:35.527Z,99333.38
2022-12-08T16:41:43.347Z,99338.69
